ANZ102 YSSY-NZAA
Flight info
| Callsign | ANZ102 |
|---|---|
| Flight time | N/A |
| Altitude | 37000 |
| Route | RIC6/34L EVONN L521 LUNBI |
| Aircraft | B77W/H-SDE1E2E3FGHIJ2J3J4J5M1RWXY/LB1D1 |
Departure
| Time | 2026-04-25 15:17 |
|---|---|
| Airport | Sydney Kingsford Smith International Airport (YSSY) |
Arrival
| Time | N/A |
|---|---|
| Airport | Auckland International Airport (NZAA) |
| Time | Latitude | Longitude | Altitude | Speed | Heading |
|---|---|---|---|---|---|
| 2026-04-25 14:57 | -33.94001 | 151.16378 | 26 ft | 0 kts | 85° |
| 2026-04-25 15:00 | -33.94002 | 151.16364 | 31 ft | 3 kts | 85° |
| 2026-04-25 15:01 | -33.94003 | 151.16342 | 29 ft | 3 kts | 85° |
| 2026-04-25 15:01 | -33.94004 | 151.16328 | 31 ft | 0 kts | 101° |
| 2026-04-25 15:02 | -33.94004 | 151.16326 | 31 ft | 3 kts | 104° |
| 2026-04-25 15:02 | -33.93996 | 151.16305 | 31 ft | 3 kts | 140° |
| 2026-04-25 15:02 | -33.93979 | 151.16294 | 31 ft | 3 kts | 177° |
| 2026-04-25 15:03 | -33.93974 | 151.16293 | 30 ft | 0 kts | 187° |
| 2026-04-25 15:06 | -33.94021 | 151.16284 | 29 ft | 5 kts | 190° |
| 2026-04-25 15:06 | -33.94080 | 151.16277 | 30 ft | 9 kts | 178° |
| 2026-04-25 15:06 | -33.94143 | 151.16290 | 28 ft | 9 kts | 167° |
| 2026-04-25 15:06 | -33.94206 | 151.16310 | 29 ft | 9 kts | 165° |
| 2026-04-25 15:07 | -33.94258 | 151.16348 | 26 ft | 9 kts | 118° |
| 2026-04-25 15:07 | -33.94252 | 151.16425 | 28 ft | 9 kts | 76° |
| 2026-04-25 15:07 | -33.94228 | 151.16528 | 28 ft | 22 kts | 74° |
| 2026-04-25 15:07 | -33.94174 | 151.16759 | 27 ft | 32 kts | 74° |
| 2026-04-25 15:08 | -33.94116 | 151.17006 | 29 ft | 30 kts | 74° |
| 2026-04-25 15:08 | -33.94077 | 151.17181 | 26 ft | 16 kts | 83° |
| 2026-04-25 15:08 | -33.94147 | 151.17267 | 27 ft | 16 kts | 161° |
| 2026-04-25 15:08 | -33.94256 | 151.17301 | 28 ft | 16 kts | 167° |
| 2026-04-25 15:09 | -33.94363 | 151.17328 | 30 ft | 16 kts | 169° |
| 2026-04-25 15:09 | -33.94475 | 151.17355 | 31 ft | 16 kts | 168° |
| 2026-04-25 15:09 | -33.94694 | 151.17413 | 31 ft | 16 kts | 168° |
| 2026-04-25 15:10 | -33.94805 | 151.17442 | 27 ft | 18 kts | 168° |
| 2026-04-25 15:10 | -33.94929 | 151.17473 | 28 ft | 18 kts | 168° |
| 2026-04-25 15:10 | -33.95124 | 151.17523 | 27 ft | 18 kts | 168° |
| 2026-04-25 15:11 | -33.95231 | 151.17551 | 23 ft | 18 kts | 168° |
| 2026-04-25 15:11 | -33.95353 | 151.17582 | 25 ft | 18 kts | 168° |
| 2026-04-25 15:11 | -33.95464 | 151.17611 | 29 ft | 18 kts | 168° |
| 2026-04-25 15:12 | -33.95644 | 151.17658 | 28 ft | 12 kts | 167° |
| 2026-04-25 15:12 | -33.95758 | 151.17688 | 29 ft | 17 kts | 168° |
| 2026-04-25 15:12 | -33.95877 | 151.17719 | 27 ft | 17 kts | 168° |
| 2026-04-25 15:12 | -33.95955 | 151.17739 | 27 ft | 17 kts | 168° |
| 2026-04-25 15:13 | -33.96113 | 151.17780 | 29 ft | 17 kts | 167° |
| 2026-04-25 15:13 | -33.96350 | 151.17841 | 28 ft | 17 kts | 167° |
| 2026-04-25 15:13 | -33.96383 | 151.17851 | 28 ft | 8 kts | 162° |
| 2026-04-25 15:14 | -33.96425 | 151.17886 | 29 ft | 8 kts | 129° |
| 2026-04-25 15:14 | -33.96432 | 151.17911 | 28 ft | 0 kts | 103° |
| 2026-04-25 15:14 | -33.96434 | 151.17922 | 28 ft | 9 kts | 97° |
| 2026-04-25 15:15 | -33.96397 | 151.18033 | 29 ft | 5 kts | 24° |
| 2026-04-25 15:15 | -33.96316 | 151.18036 | 28 ft | 0 kts | 349° |
| 2026-04-25 15:16 | -33.96036 | 151.17964 | 25 ft | 79 kts | 348° |
| 2026-04-25 15:16 | -33.94134 | 151.17479 | 53 ft | 187 kts | 348° |
| 2026-04-25 15:17 | -33.91505 | 151.16815 | 1104 ft | 205 kts | 347° |
| 2026-04-25 15:17 | -33.90115 | 151.16443 | 2004 ft | 203 kts | 348° |
| 2026-04-25 15:17 | -33.88855 | 151.15713 | 2621 ft | 212 kts | 318° |
| 2026-04-25 15:18 | -33.87867 | 151.14322 | 3208 ft | 223 kts | 313° |
| 2026-04-25 15:18 | -33.85789 | 151.11498 | 4674 ft | 228 kts | 314° |
| 2026-04-25 15:18 | -33.84697 | 151.10080 | 5409 ft | 233 kts | 314° |
| 2026-04-25 15:19 | -33.83590 | 151.08637 | 6133 ft | 235 kts | 314° |
| 2026-04-25 15:19 | -33.82852 | 151.07676 | 6640 ft | 236 kts | 314° |
| 2026-04-25 15:19 | -33.81360 | 151.05729 | 7543 ft | 240 kts | 314° |
| 2026-04-25 15:19 | -33.80215 | 151.04237 | 8208 ft | 244 kts | 314° |
| 2026-04-25 15:20 | -33.79050 | 151.02722 | 8853 ft | 247 kts | 314° |
| 2026-04-25 15:20 | -33.77885 | 151.01208 | 9535 ft | 250 kts | 313° |
| 2026-04-25 15:20 | -33.76694 | 150.99661 | 10208 ft | 253 kts | 313° |
| 2026-04-25 15:20 | -33.75484 | 150.98090 | 10830 ft | 256 kts | 313° |
| 2026-04-25 15:21 | -33.74280 | 150.96526 | 11440 ft | 258 kts | 313° |
| 2026-04-25 15:21 | -33.73049 | 150.94929 | 12062 ft | 260 kts | 313° |
| 2026-04-25 15:21 | -33.71807 | 150.93317 | 12680 ft | 263 kts | 313° |
| 2026-04-25 15:21 | -33.70571 | 150.91714 | 13312 ft | 266 kts | 313° |
| 2026-04-25 15:22 | -33.69304 | 150.90073 | 13967 ft | 268 kts | 313° |
| 2026-04-25 15:22 | -33.68023 | 150.88413 | 14544 ft | 271 kts | 313° |
| 2026-04-25 15:22 | -33.66742 | 150.86754 | 15098 ft | 274 kts | 313° |
| 2026-04-25 15:22 | -33.65434 | 150.85061 | 15661 ft | 278 kts | 313° |
| 2026-04-25 15:23 | -33.64104 | 150.83340 | 16221 ft | 282 kts | 313° |
| 2026-04-25 15:23 | -33.62771 | 150.81616 | 16788 ft | 286 kts | 313° |
| 2026-04-25 15:23 | -33.61405 | 150.79852 | 17367 ft | 290 kts | 313° |
| 2026-04-25 15:23 | -33.60021 | 150.78066 | 17956 ft | 293 kts | 313° |
| 2026-04-25 15:24 | -33.58619 | 150.76256 | 18554 ft | 297 kts | 313° |
| 2026-04-25 15:24 | -33.57220 | 150.74450 | 19074 ft | 301 kts | 313° |
| 2026-04-25 15:24 | -33.55778 | 150.72588 | 19604 ft | 304 kts | 313° |
| 2026-04-25 15:24 | -33.54818 | 150.71349 | 19958 ft | 307 kts | 313° |